sensor_id;sensor_type;location;lat;lon;timestamp;temperature;humidity
6174;DHT22;3120;48.796;9.796;2023-03-01T00:00:01;-0.80;97.50
6174;DHT22;3120;48.796;9.796;2023-03-01T00:02:28;-0.80;93.30
6174;DHT22;3120;48.796;9.796;2023-03-01T00:04:57;-1.60;95.40
6174;DHT22;3120;48.796;9.796;2023-03-01T00:07:23;-0.90;91.60
6174;DHT22;3120;48.796;9.796;2023-03-01T00:09:51;-0.40;91.50
6174;DHT22;3120;48.796;9.796;2023-03-01T00:12:17;-1.60;85.10
6174;DHT22;3120;48.796;9.796;2023-03-01T00:14:45;-0.60;88.30
6174;DHT22;3120;48.796;9.796;2023-03-01T00:17:12;-0.90;74.90
6174;DHT22;3120;48.796;9.796;2023-03-01T00:19:38;-0.70;87.30
6174;DHT22;3120;48.796;9.796;2023-03-01T00:22:03;-0.80;76.20
6174;DHT22;3120;48.796;9.796;2023-03-01T00:24:29;-0.30;82.20
6174;DHT22;3120;48.796;9.796;2023-03-01T00:27:20;-0.30;88.40
6174;DHT22;3120;48.796;9.796;2023-03-01T00:29:46;-1.80;98.70
6174;DHT22;3120;48.796;9.796;2023-03-01T00:32:14;-1.80;99.90
6174;DHT22;3120;48.796;9.796;2023-03-01T00:34:41;-1.80;99.90
6174;DHT22;3120;48.796;9.796;2023-03-01T00:37:20;-2.70;99.90
6174;DHT22;3120;48.796;9.796;2023-03-01T00:39:49;-1.20;99.90
6174;DHT22;3120;48.796;9.796;2023-03-01T00:42:19;-0.70;99.90
6174;DHT22;3120;48.796;9.796;2023-03-01T00:44:47;-0.90;99.90
6174;DHT22;3120;48.796;9.796;2023-03-01T00:47:13;-0.70;94.80
6174;DHT22;3120;48.796;9.796;2023-03-01T00:49:45;-1.40;74.70
6174;DHT22;3120;48.796;9.796;2023-03-01T00:52:13;-1.20;33.40
6174;DHT22;3120;48.796;9.796;2023-03-01T00:54:43;-0.90;8.30
6174;DHT22;3120;48.796;9.796;2023-03-01T00:57:12;-0.90;1.00
6174;DHT22;3120;48.796;9.796;2023-03-01T00:59:41;-0.20;1.00
6174;DHT22;3120;48.796;9.796;2023-03-01T01:02:10;0.50;1.00
6174;DHT22;3120;48.796;9.796;2023-03-01T01:04:36;-0.60;1.00
6174;DHT22;3120;48.796;9.796;2023-03-01T01:07:02;-0.60;1.00
6174;DHT22;3120;48.796;9.796;2023-03-01T01:09:31;-0.30;1.00
6174;DHT22;3120;48.796;9.796;2023-03-01T01:11:59;-0.50;1.00
6174;DHT22;3120;48.796;9.796;2023-03-01T01:14:26;0.10;1.00
6174;DHT22;3120;48.796;9.796;2023-03-01T01:16:57;-0.40;1.00
6174;DHT22;3120;48.796;9.796;2023-03-01T01:19:23;-0.20;1.00
6174;DHT22;3120;48.796;9.796;2023-03-01T01:21:53;0.90;1.00
6174;DHT22;3120;48.796;9.796;2023-03-01T01:24:22;-0.10;1.00
6174;DHT22;3120;48.796;9.796;2023-03-01T01:26:53;-0.30;1.00
6174;DHT22;3120;48.796;9.796;2023-03-01T01:29:20;0.50;1.00
6174;DHT22;3120;48.796;9.796;2023-03-01T01:31:49;-0.10;1.00
6174;DHT22;3120;48.796;9.796;2023-03-01T01:34:17;-0.10;1.00
6174;DHT22;3120;48.796;9.796;2023-03-01T01:36:46;0.60;99.90
6174;DHT22;3120;48.796;9.796;2023-03-01T01:39:13;0.50;1.00
6174;DHT22;3120;48.796;9.796;2023-03-01T01:41:40;1.20;99.90
6174;DHT22;3120;48.796;9.796;2023-03-01T01:44:18;0.70;1.00
6174;DHT22;3120;48.796;9.796;2023-03-01T01:47:00;0.00;1.00
6174;DHT22;3120;48.796;9.796;2023-03-01T01:49:41;-0.10;1.00
6174;DHT22;3120;48.796;9.796;2023-03-01T01:52:18;-0.40;1.00
6174;DHT22;3120;48.796;9.796;2023-03-01T01:54:49;1.30;1.00
6174;DHT22;3120;48.796;9.796;2023-03-01T01:57:30;0.40;1.00
6174;DHT22;3120;48.796;9.796;2023-03-01T02:00:10;0.00;1.00
6174;DHT22;3120;48.796;9.796;2023-03-01T02:02:38;0.00;1.00
6174;DHT22;3120;48.796;9.796;2023-03-01T02:08:20;0.10;1.00
6174;DHT22;3120;48.796;9.796;2023-03-01T02:10:49;0.10;1.00
6174;DHT22;3120;48.796;9.796;2023-03-01T02:13:15;0.10;1.00
6174;DHT22;3120;48.796;9.796;2023-03-01T02:15:42;1.40;1.00
6174;DHT22;3120;48.796;9.796;2023-03-01T02:18:10;0.80;1.00
6174;DHT22;3120;48.796;9.796;2023-03-01T02:20:44;0.10;99.90
6174;DHT22;3120;48.796;9.796;2023-03-01T02:23:13;0.20;1.00
6174;DHT22;3120;48.796;9.796;2023-03-01T02:25:56;0.80;1.00
6174;DHT22;3120;48.796;9.796;2023-03-01T02:28:32;0.20;99.90
6174;DHT22;3120;48.796;9.796;2023-03-01T02:30:59;0.20;1.00
6174;DHT22;3120;48.796;9.796;2023-03-01T02:33:44;1.10;1.00
6174;DHT22;3120;48.796;9.796;2023-03-01T02:36:14;0.80;1.00
6174;DHT22;3120;48.796;9.796;2023-03-01T02:38:44;1.20;99.90
6174;DHT22;3120;48.796;9.796;2023-03-01T02:41:13;1.00;99.90
6174;DHT22;3120;48.796;9.796;2023-03-01T02:43:44;0.90;99.90
6174;DHT22;3120;48.796;9.796;2023-03-01T02:46:18;0.20;99.90
6174;DHT22;3120;48.796;9.796;2023-03-01T02:48:52;-0.50;99.90
6174;DHT22;3120;48.796;9.796;2023-03-01T02:54:52;0.20;99.90
6174;DHT22;3120;48.796;9.796;2023-03-01T02:57:19;1.30;99.90
6174;DHT22;3120;48.796;9.796;2023-03-01T02:59:48;0.00;99.90
6174;DHT22;3120;48.796;9.796;2023-03-01T03:02:42;1.20;99.90
6174;DHT22;3120;48.796;9.796;2023-03-01T03:05:16;1.20;99.90
6174;DHT22;3120;48.796;9.796;2023-03-01T03:07:44;0.30;99.90
6174;DHT22;3120;48.796;9.796;2023-03-01T03:10:19;1.00;99.90
6174;DHT22;3120;48.796;9.796;2023-03-01T03:12:50;0.90;1.00
6174;DHT22;3120;48.796;9.796;2023-03-01T03:15:16;1.40;1.00
6174;DHT22;3120;48.796;9.796;2023-03-01T03:17:43;1.10;99.90
6174;DHT22;3120;48.796;9.796;2023-03-01T03:20:15;0.40;95.50
6174;DHT22;3120;48.796;9.796;2023-03-01T03:22:45;1.00;99.90
6174;DHT22;3120;48.796;9.796;2023-03-01T03:25:11;1.20;99.90
6174;DHT22;3120;48.796;9.796;2023-03-01T03:27:40;0.90;99.90
6174;DHT22;3120;48.796;9.796;2023-03-01T03:30:07;0.40;99.90
6174;DHT22;3120;48.796;9.796;2023-03-01T03:32:36;0.40;99.90
6174;DHT22;3120;48.796;9.796;2023-03-01T03:35:06;1.60;99.90
6174;DHT22;3120;48.796;9.796;2023-03-01T03:37:43;0.50;1.00
6174;DHT22;3120;48.796;9.796;2023-03-01T03:40:33;1.20;99.90
6174;DHT22;3120;48.796;9.796;2023-03-01T03:42:59;1.40;1.00
6174;DHT22;3120;48.796;9.796;2023-03-01T03:45:25;1.50;1.00
6174;DHT22;3120;48.796;9.796;2023-03-01T03:47:50;0.50;99.90
6174;DHT22;3120;48.796;9.796;2023-03-01T03:50:17;1.20;99.90
6174;DHT22;3120;48.796;9.796;2023-03-01T03:52:43;1.40;99.90
6174;DHT22;3120;48.796;9.796;2023-03-01T03:55:13;0.90;99.90
6174;DHT22;3120;48.796;9.796;2023-03-01T03:57:40;0.60;99.90
6174;DHT22;3120;48.796;9.796;2023-03-01T04:00:08;0.90;99.90
6174;DHT22;3120;48.796;9.796;2023-03-01T04:02:42;0.50;1.00
6174;DHT22;3120;48.796;9.796;2023-03-01T04:05:10;0.50;1.00
6174;DHT22;3120;48.796;9.796;2023-03-01T04:07:36;0.40;63.70
6174;DHT22;3120;48.796;9.796;2023-03-01T04:10:04;0.40;1.00
6174;DHT22;3120;48.796;9.796;2023-03-01T04:12:30;0.40;99.90
6174;DHT22;3120;48.796;9.796;2023-03-01T04:14:55;1.20;99.90
6174;DHT22;3120;48.796;9.796;2023-03-01T04:17:21;0.40;99.90
6174;DHT22;3120;48.796;9.796;2023-03-01T04:19:47;0.10;99.90
6174;DHT22;3120;48.796;9.796;2023-03-01T04:22:14;1.50;1.00
6174;DHT22;3120;48.796;9.796;2023-03-01T04:24:44;1.30;99.90
6174;DHT22;3120;48.796;9.796;2023-03-01T04:27:10;0.60;1.00
6174;DHT22;3120;48.796;9.796;2023-03-01T04:29:36;0.50;1.00
6174;DHT22;3120;48.796;9.796;2023-03-01T04:32:02;0.60;1.00
6174;DHT22;3120;48.796;9.796;2023-03-01T04:34:28;0.60;71.80
6174;DHT22;3120;48.796;9.796;2023-03-01T04:36:54;0.50;1.00
6174;DHT22;3120;48.796;9.796;2023-03-01T04:39:20;1.20;99.90
6174;DHT22;3120;48.796;9.796;2023-03-01T04:41:46;0.50;99.90
6174;DHT22;3120;48.796;9.796;2023-03-01T04:44:12;0.40;99.90
6174;DHT22;3120;48.796;9.796;2023-03-01T04:46:38;0.50;1.00
6174;DHT22;3120;48.796;9.796;2023-03-01T04:49:04;0.50;1.00
6174;DHT22;3120;48.796;9.796;2023-03-01T04:51:30;1.00;99.90
6174;DHT22;3120;48.796;9.796;2023-03-01T04:53:58;0.50;99.90
6174;DHT22;3120;48.796;9.796;2023-03-01T04:56:24;0.60;22.10
6174;DHT22;3120;48.796;9.796;2023-03-01T04:58:53;0.60;1.00
6174;DHT22;3120;48.796;9.796;2023-03-01T05:01:21;1.70;1.00
6174;DHT22;3120;48.796;9.796;2023-03-01T05:03:50;0.50;99.90
6174;DHT22;3120;48.796;9.796;2023-03-01T05:06:16;0.50;43.10
6174;DHT22;3120;48.796;9.796;2023-03-01T05:08:43;0.60;90.60
6174;DHT22;3120;48.796;9.796;2023-03-01T05:11:13;0.60;99.90
6174;DHT22;3120;48.796;9.796;2023-03-01T05:13:39;0.60;92.80
6174;DHT22;3120;48.796;9.796;2023-03-01T05:16:06;0.60;99.90
6174;DHT22;3120;48.796;9.796;2023-03-01T05:18:33;0.60;99.90
6174;DHT22;3120;48.796;9.796;2023-03-01T05:21:17;0.60;1.00
6174;DHT22;3120;48.796;9.796;2023-03-01T05:23:42;0.60;29.60
6174;DHT22;3120;48.796;9.796;2023-03-01T05:26:08;0.50;99.90
6174;DHT22;3120;48.796;9.796;2023-03-01T05:28:34;0.50;99.90
6174;DHT22;3120;48.796;9.796;2023-03-01T05:31:00;0.60;99.90
6174;DHT22;3120;48.796;9.796;2023-03-01T05:33:26;0.60;1.00
6174;DHT22;3120;48.796;9.796;2023-03-01T05:35:52;0.60;99.90
6174;DHT22;3120;48.796;9.796;2023-03-01T05:38:20;0.50;93.90
6174;DHT22;3120;48.796;9.796;2023-03-01T05:40:47;0.50;99.90
6174;DHT22;3120;48.796;9.796;2023-03-01T05:43:15;0.60;41.30
6174;DHT22;3120;48.796;9.796;2023-03-01T05:45:42;0.60;1.00
6174;DHT22;3120;48.796;9.796;2023-03-01T05:48:09;1.80;99.90
6174;DHT22;3120;48.796;9.796;2023-03-01T05:50:37;0.50;99.90
6174;DHT22;3120;48.796;9.796;2023-03-01T05:53:13;0.50;99.90
6174;DHT22;3120;48.796;9.796;2023-03-01T05:55:41;0.50;1.00
6174;DHT22;3120;48.796;9.796;2023-03-01T05:58:12;0.40;99.90
6174;DHT22;3120;48.796;9.796;2023-03-01T06:00:39;1.00;99.90
6174;DHT22;3120;48.796;9.796;2023-03-01T06:03:05;0.90;99.90
6174;DHT22;3120;48.796;9.796;2023-03-01T06:05:31;0.10;1.00
6174;DHT22;3120;48.796;9.796;2023-03-01T06:08:00;0.60;1.00
6174;DHT22;3120;48.796;9.796;2023-03-01T06:10:29;0.10;1.00
6174;DHT22;3120;48.796;9.796;2023-03-01T06:12:55;0.20;1.00
6174;DHT22;3120;48.796;9.796;2023-03-01T06:15:21;0.30;1.00
6174;DHT22;3120;48.796;9.796;2023-03-01T06:17:47;-0.40;1.00
6174;DHT22;3120;48.796;9.796;2023-03-01T06:20:19;0.10;1.00
6174;DHT22;3120;48.796;9.796;2023-03-01T06:22:45;0.00;1.00
6174;DHT22;3120;48.796;9.796;2023-03-01T06:25:14;0.80;1.00
6174;DHT22;3120;48.796;9.796;2023-03-01T06:27:41;0.80;1.00
6174;DHT22;3120;48.796;9.796;2023-03-01T06:32:37;0.00;1.00
6174;DHT22;3120;48.796;9.796;2023-03-01T06:35:04;0.00;1.00
6174;DHT22;3120;48.796;9.796;2023-03-01T06:37:30;0.00;1.00
6174;DHT22;3120;48.796;9.796;2023-03-01T06:39:55;0.90;99.90
6174;DHT22;3120;48.796;9.796;2023-03-01T06:42:21;1.10;1.00
6174;DHT22;3120;48.796;9.796;2023-03-01T06:44:47;0.70;1.00
6174;DHT22;3120;48.796;9.796;2023-03-01T06:47:16;1.10;99.90
6174;DHT22;3120;48.796;9.796;2023-03-01T06:49:41;0.30;99.90
6174;DHT22;3120;48.796;9.796;2023-03-01T06:52:07;0.30;99.90
6174;DHT22;3120;48.796;9.796;2023-03-01T06:54:32;1.60;1.00
6174;DHT22;3120;48.796;9.796;2023-03-01T06:56:58;0.20;99.90
6174;DHT22;3120;48.796;9.796;2023-03-01T06:59:24;0.30;1.00
6174;DHT22;3120;48.796;9.796;2023-03-01T07:01:49;0.50;1.00
6174;DHT22;3120;48.796;9.796;2023-03-01T07:04:15;0.70;1.00
6174;DHT22;3120;48.796;9.796;2023-03-01T07:06:40;1.00;1.00
6174;DHT22;3120;48.796;9.796;2023-03-01T07:09:06;1.30;1.00
6174;DHT22;3120;48.796;9.796;2023-03-01T07:11:32;1.20;1.00
6174;DHT22;3120;48.796;9.796;2023-03-01T07:13:57;1.10;99.90
6174;DHT22;3120;48.796;9.796;2023-03-01T07:16:23;1.00;1.00
6174;DHT22;3120;48.796;9.796;2023-03-01T07:18:49;0.90;99.90
6174;DHT22;3120;48.796;9.796;2023-03-01T07:21:15;1.00;99.90
6174;DHT22;3120;48.796;9.796;2023-03-01T07:23:41;0.90;99.50
6174;DHT22;3120;48.796;9.796;2023-03-01T07:26:07;1.00;1.00
6174;DHT22;3120;48.796;9.796;2023-03-01T07:28:32;0.90;99.90
6174;DHT22;3120;48.796;9.796;2023-03-01T07:43:58;1.90;99.90
6174;DHT22;3120;48.796;9.796;2023-03-01T07:46:23;4.00;99.90
6174;DHT22;3120;48.796;9.796;2023-03-01T07:48:49;3.90;1.00
6174;DHT22;3120;48.796;9.796;2023-03-01T07:51:15;2.90;99.90
6174;DHT22;3120;48.796;9.796;2023-03-01T07:53:42;3.00;99.90
6174;DHT22;3120;48.796;9.796;2023-03-01T07:56:10;2.90;99.90
6174;DHT22;3120;48.796;9.796;2023-03-01T07:58:38;2.80;99.90
6174;DHT22;3120;48.796;9.796;2023-03-01T08:01:08;2.50;99.90
6174;DHT22;3120;48.796;9.796;2023-03-01T08:03:38;2.60;99.90
6174;DHT22;3120;48.796;9.796;2023-03-01T08:06:09;2.40;99.90
6174;DHT22;3120;48.796;9.796;2023-03-01T08:08:36;2.00;77.60
6174;DHT22;3120;48.796;9.796;2023-03-01T08:11:05;2.60;1.00
6174;DHT22;3120;48.796;9.796;2023-03-01T08:13:34;2.80;99.90
6174;DHT22;3120;48.796;9.796;2023-03-01T08:16:09;2.80;99.90
6174;DHT22;3120;48.796;9.796;2023-03-01T08:18:35;2.80;99.90
6174;DHT22;3120;48.796;9.796;2023-03-01T08:21:03;3.00;99.90
6174;DHT22;3120;48.796;9.796;2023-03-01T08:23:28;3.20;99.90
6174;DHT22;3120;48.796;9.796;2023-03-01T08:26:02;3.60;1.00
6174;DHT22;3120;48.796;9.796;2023-03-01T08:28:34;3.30;1.00
6174;DHT22;3120;48.796;9.796;2023-03-01T08:30:59;3.00;99.90
6174;DHT22;3120;48.796;9.796;2023-03-01T08:33:25;3.00;99.90
6174;DHT22;3120;48.796;9.796;2023-03-01T08:35:51;2.90;99.90
6174;DHT22;3120;48.796;9.796;2023-03-01T08:38:16;3.00;99.90
6174;DHT22;3120;48.796;9.796;2023-03-01T08:40:42;2.80;99.90
6174;DHT22;3120;48.796;9.796;2023-03-01T08:43:07;2.90;99.90
6174;DHT22;3120;48.796;9.796;2023-03-01T08:45:33;3.00;99.90
6174;DHT22;3120;48.796;9.796;2023-03-01T08:47:59;2.90;99.90
6174;DHT22;3120;48.796;9.796;2023-03-01T08:50:25;2.90;99.90
6174;DHT22;3120;48.796;9.796;2023-03-01T08:52:51;2.90;99.90
6174;DHT22;3120;48.796;9.796;2023-03-01T08:55:17;2.90;99.90
6174;DHT22;3120;48.796;9.796;2023-03-01T08:57:43;3.00;99.90
6174;DHT22;3120;48.796;9.796;2023-03-01T09:00:09;3.10;99.90
6174;DHT22;3120;48.796;9.796;2023-03-01T09:02:37;3.20;99.90
6174;DHT22;3120;48.796;9.796;2023-03-01T09:05:03;3.50;8.10
6174;DHT22;3120;48.796;9.796;2023-03-01T09:07:29;3.60;50.40
6174;DHT22;3120;48.796;9.796;2023-03-01T09:09:54;3.80;1.00
6174;DHT22;3120;48.796;9.796;2023-03-01T09:12:20;3.90;1.00
6174;DHT22;3120;48.796;9.796;2023-03-01T09:14:47;4.10;1.00
6174;DHT22;3120;48.796;9.796;2023-03-01T09:17:13;4.10;1.00
6174;DHT22;3120;48.796;9.796;2023-03-01T09:19:38;4.30;1.00
6174;DHT22;3120;48.796;9.796;2023-03-01T09:22:05;4.30;1.00
6174;DHT22;3120;48.796;9.796;2023-03-01T09:24:31;4.40;1.00
6174;DHT22;3120;48.796;9.796;2023-03-01T09:26:56;4.40;1.00
6174;DHT22;3120;48.796;9.796;2023-03-01T09:29:22;4.30;1.00
6174;DHT22;3120;48.796;9.796;2023-03-01T09:31:48;4.30;1.00
6174;DHT22;3120;48.796;9.796;2023-03-01T09:34:14;4.50;1.00
6174;DHT22;3120;48.796;9.796;2023-03-01T09:36:41;4.70;99.90
6174;DHT22;3120;48.796;9.796;2023-03-01T09:39:07;4.80;99.90
6174;DHT22;3120;48.796;9.796;2023-03-01T09:46:57;4.90;99.90
6174;DHT22;3120;48.796;9.796;2023-03-01T09:49:26;5.00;99.90
6174;DHT22;3120;48.796;9.796;2023-03-01T09:54:44;4.80;99.90
6174;DHT22;3120;48.796;9.796;2023-03-01T09:57:36;4.90;99.90
6174;DHT22;3120;48.796;9.796;2023-03-01T10:02:49;4.80;99.90
6174;DHT22;3120;48.796;9.796;2023-03-01T10:05:43;4.60;99.90
6174;DHT22;3120;48.796;9.796;2023-03-01T10:08:24;4.70;99.90
6174;DHT22;3120;48.796;9.796;2023-03-01T10:10:52;4.90;99.90
6174;DHT22;3120;48.796;9.796;2023-03-01T10:13:45;5.00;99.90
6174;DHT22;3120;48.796;9.796;2023-03-01T10:16:43;4.90;99.90
6174;DHT22;3120;48.796;9.796;2023-03-01T10:19:14;4.80;99.90
6174;DHT22;3120;48.796;9.796;2023-03-01T10:21:45;4.90;99.90
6174;DHT22;3120;48.796;9.796;2023-03-01T10:24:17;5.80;99.90
6174;DHT22;3120;48.796;9.796;2023-03-01T10:26:55;5.10;99.90
6174;DHT22;3120;48.796;9.796;2023-03-01T10:29:30;5.10;99.90
6174;DHT22;3120;48.796;9.796;2023-03-01T10:31:57;5.10;99.90
6174;DHT22;3120;48.796;9.796;2023-03-01T10:34:31;5.30;99.90
6174;DHT22;3120;48.796;9.796;2023-03-01T10:39:35;5.40;99.90
6174;DHT22;3120;48.796;9.796;2023-03-01T10:42:04;5.50;99.90
6174;DHT22;3120;48.796;9.796;2023-03-01T10:44:49;5.50;99.90
6174;DHT22;3120;48.796;9.796;2023-03-01T10:47:18;5.40;99.90
6174;DHT22;3120;48.796;9.796;2023-03-01T10:50:21;5.40;99.90
6174;DHT22;3120;48.796;9.796;2023-03-01T10:52:59;5.60;99.90
6174;DHT22;3120;48.796;9.796;2023-03-01T10:55:34;5.90;99.90
6174;DHT22;3120;48.796;9.796;2023-03-01T10:58:20;5.80;99.90
6174;DHT22;3120;48.796;9.796;2023-03-01T11:00:55;5.70;99.90
6174;DHT22;3120;48.796;9.796;2023-03-01T11:03:24;5.80;99.90
6174;DHT22;3120;48.796;9.796;2023-03-01T11:05:59;5.90;99.90
6174;DHT22;3120;48.796;9.796;2023-03-01T11:08:45;5.90;99.90
6174;DHT22;3120;48.796;9.796;2023-03-01T11:14:21;6.20;99.90
6174;DHT22;3120;48.796;9.796;2023-03-01T11:16:49;6.10;99.90
6174;DHT22;3120;48.796;9.796;2023-03-01T11:19:23;6.00;99.90
6174;DHT22;3120;48.796;9.796;2023-03-01T11:22:04;5.90;99.90
6174;DHT22;3120;48.796;9.796;2023-03-01T11:24:52;6.00;99.90
6174;DHT22;3120;48.796;9.796;2023-03-01T11:27:25;6.20;99.90
6174;DHT22;3120;48.796;9.796;2023-03-01T11:30:18;6.20;99.90
6174;DHT22;3120;48.796;9.796;2023-03-01T11:33:01;6.10;99.90
6174;DHT22;3120;48.796;9.796;2023-03-01T11:35:29;6.20;99.90
6174;DHT22;3120;48.796;9.796;2023-03-01T11:40:43;6.40;99.90
6174;DHT22;3120;48.796;9.796;2023-03-01T11:43:20;6.30;99.90
6174;DHT22;3120;48.796;9.796;2023-03-01T11:48:41;6.50;99.90
6174;DHT22;3120;48.796;9.796;2023-03-01T11:51:23;6.60;99.90
6174;DHT22;3120;48.796;9.796;2023-03-01T12:02:35;6.60;99.90
6174;DHT22;3120;48.796;9.796;2023-03-01T12:35:38;7.30;62.10
6174;DHT22;3120;48.796;9.796;2023-03-01T12:50:21;7.00;76.30
6174;DHT22;3120;48.796;9.796;2023-03-01T12:52:56;7.10;89.80
6174;DHT22;3120;48.796;9.796;2023-03-01T12:55:41;7.20;92.10
6174;DHT22;3120;48.796;9.796;2023-03-01T13:00:40;7.10;76.00
6174;DHT22;3120;48.796;9.796;2023-03-01T13:03:18;7.30;99.90
6174;DHT22;3120;48.796;9.796;2023-03-01T13:05:55;7.20;83.20
6174;DHT22;3120;48.796;9.796;2023-03-01T13:11:19;7.10;99.90
6174;DHT22;3120;48.796;9.796;2023-03-01T13:13:45;7.30;99.90
6174;DHT22;3120;48.796;9.796;2023-03-01T13:16:39;7.40;98.80
6174;DHT22;3120;48.796;9.796;2023-03-01T13:19:08;7.20;99.90
6174;DHT22;3120;48.796;9.796;2023-03-01T13:21:35;7.20;99.90
6174;DHT22;3120;48.796;9.796;2023-03-01T13:24:00;7.20;99.90
6174;DHT22;3120;48.796;9.796;2023-03-01T13:26:26;7.20;99.90
6174;DHT22;3120;48.796;9.796;2023-03-01T13:28:58;7.10;99.90
6174;DHT22;3120;48.796;9.796;2023-03-01T13:33:57;7.30;99.90
6174;DHT22;3120;48.796;9.796;2023-03-01T13:39:04;7.80;99.90
6174;DHT22;3120;48.796;9.796;2023-03-01T13:46:51;7.30;99.90
6174;DHT22;3120;48.796;9.796;2023-03-01T13:49:23;7.40;99.90
6174;DHT22;3120;48.796;9.796;2023-03-01T13:51:50;7.40;99.90
6174;DHT22;3120;48.796;9.796;2023-03-01T13:54:29;7.40;98.40
6174;DHT22;3120;48.796;9.796;2023-03-01T13:56:58;7.40;99.90
6174;DHT22;3120;48.796;9.796;2023-03-01T13:59:25;7.40;96.10
6174;DHT22;3120;48.796;9.796;2023-03-01T14:01:57;7.40;97.10
6174;DHT22;3120;48.796;9.796;2023-03-01T14:04:31;7.30;84.80
6174;DHT22;3120;48.796;9.796;2023-03-01T14:09:45;7.50;93.70
6174;DHT22;3120;48.796;9.796;2023-03-01T14:15:04;7.50;86.30
6174;DHT22;3120;48.796;9.796;2023-03-01T14:20:27;7.70;70.90
6174;DHT22;3120;48.796;9.796;2023-03-01T14:26:03;7.70;80.20
6174;DHT22;3120;48.796;9.796;2023-03-01T14:28:31;7.70;46.50
6174;DHT22;3120;48.796;9.796;2023-03-01T14:31:00;7.70;49.00
6174;DHT22;3120;48.796;9.796;2023-03-01T14:36:01;7.60;49.50
6174;DHT22;3120;48.796;9.796;2023-03-01T14:41:06;7.60;59.10
6174;DHT22;3120;48.796;9.796;2023-03-01T14:43:33;7.70;43.20
6174;DHT22;3120;48.796;9.796;2023-03-01T14:45:59;7.70;41.00
6174;DHT22;3120;48.796;9.796;2023-03-01T14:48:25;7.70;29.60
6174;DHT22;3120;48.796;9.796;2023-03-01T14:50:53;7.70;27.70
6174;DHT22;3120;48.796;9.796;2023-03-01T14:53:27;7.70;29.50
6174;DHT22;3120;48.796;9.796;2023-03-01T14:56:00;7.80;23.40
6174;DHT22;3120;48.796;9.796;2023-03-01T14:58:31;8.30;21.80
6174;DHT22;3120;48.796;9.796;2023-03-01T15:00:59;7.60;39.80
6174;DHT22;3120;48.796;9.796;2023-03-01T15:05:52;7.80;31.30
6174;DHT22;3120;48.796;9.796;2023-03-01T15:08:21;7.70;28.40
6174;DHT22;3120;48.796;9.796;2023-03-01T15:11:41;7.70;17.50
6174;DHT22;3120;48.796;9.796;2023-03-01T15:13:50;7.80;28.40
6174;DHT22;3120;48.796;9.796;2023-03-01T15:16:43;7.80;31.60
6174;DHT22;3120;48.796;9.796;2023-03-01T15:19:17;7.80;27.70
6174;DHT22;3120;48.796;9.796;2023-03-01T15:21:49;7.80;19.00
6174;DHT22;3120;48.796;9.796;2023-03-01T15:24:20;7.80;20.30
6174;DHT22;3120;48.796;9.796;2023-03-01T15:26:52;7.80;22.00
6174;DHT22;3120;48.796;9.796;2023-03-01T15:29:22;7.70;29.70
6174;DHT22;3120;48.796;9.796;2023-03-01T15:32:03;7.80;23.10
6174;DHT22;3120;48.796;9.796;2023-03-01T15:34:31;7.80;22.70
6174;DHT22;3120;48.796;9.796;2023-03-01T15:36:59;7.80;37.00
6174;DHT22;3120;48.796;9.796;2023-03-01T15:40:02;7.80;15.90
6174;DHT22;3120;48.796;9.796;2023-03-01T15:48:01;7.80;21.00
6174;DHT22;3120;48.796;9.796;2023-03-01T15:50:35;7.80;24.40
6174;DHT22;3120;48.796;9.796;2023-03-01T15:53:13;7.70;28.10
6174;DHT22;3120;48.796;9.796;2023-03-01T15:55:40;7.70;24.20
6174;DHT22;3120;48.796;9.796;2023-03-01T15:58:10;7.90;29.10
6174;DHT22;3120;48.796;9.796;2023-03-01T16:00:37;7.60;32.60
6174;DHT22;3120;48.796;9.796;2023-03-01T16:03:05;7.70;33.70
6174;DHT22;3120;48.796;9.796;2023-03-01T16:05:33;7.60;36.40
6174;DHT22;3120;48.796;9.796;2023-03-01T16:08:01;7.70;38.50
6174;DHT22;3120;48.796;9.796;2023-03-01T16:10:28;7.70;45.60
6174;DHT22;3120;48.796;9.796;2023-03-01T16:12:57;7.60;43.60
6174;DHT22;3120;48.796;9.796;2023-03-01T16:15:25;8.20;69.60
6174;DHT22;3120;48.796;9.796;2023-03-01T16:17:51;7.50;52.40
6174;DHT22;3120;48.796;9.796;2023-03-01T16:20:20;7.40;68.30
6174;DHT22;3120;48.796;9.796;2023-03-01T16:22:46;7.40;67.70
6174;DHT22;3120;48.796;9.796;2023-03-01T16:25:14;7.30;75.90
6174;DHT22;3120;48.796;9.796;2023-03-01T16:27:48;7.30;87.80
6174;DHT22;3120;48.796;9.796;2023-03-01T16:30:17;7.30;67.20
6174;DHT22;3120;48.796;9.796;2023-03-01T16:32:44;7.20;82.00
6174;DHT22;3120;48.796;9.796;2023-03-01T16:35:13;7.10;83.50
6174;DHT22;3120;48.796;9.796;2023-03-01T16:37:39;7.10;83.00
6174;DHT22;3120;48.796;9.796;2023-03-01T16:40:15;7.00;84.30
6174;DHT22;3120;48.796;9.796;2023-03-01T16:42:41;6.90;95.00
6174;DHT22;3120;48.796;9.796;2023-03-01T16:45:08;6.70;99.90
6174;DHT22;3120;48.796;9.796;2023-03-01T16:47:34;6.80;99.90
6174;DHT22;3120;48.796;9.796;2023-03-01T16:50:15;6.70;99.90
6174;DHT22;3120;48.796;9.796;2023-03-01T16:52:41;6.50;99.90
6174;DHT22;3120;48.796;9.796;2023-03-01T16:55:07;6.50;99.90
6174;DHT22;3120;48.796;9.796;2023-03-01T17:00:44;6.50;99.90
6174;DHT22;3120;48.796;9.796;2023-03-01T17:16:50;6.00;99.90
6174;DHT22;3120;48.796;9.796;2023-03-01T17:19:18;5.80;99.90
6174;DHT22;3120;48.796;9.796;2023-03-01T17:21:45;6.20;99.90
6174;DHT22;3120;48.796;9.796;2023-03-01T17:24:11;6.60;99.90
6174;DHT22;3120;48.796;9.796;2023-03-01T17:26:37;5.70;99.90
6174;DHT22;3120;48.796;9.796;2023-03-01T17:29:03;5.50;99.90
6174;DHT22;3120;48.796;9.796;2023-03-01T17:31:30;5.50;99.90
6174;DHT22;3120;48.796;9.796;2023-03-01T17:33:56;5.50;99.90
6174;DHT22;3120;48.796;9.796;2023-03-01T17:36:21;5.40;99.90
6174;DHT22;3120;48.796;9.796;2023-03-01T17:38:48;5.30;99.90
6174;DHT22;3120;48.796;9.796;2023-03-01T17:41:14;5.20;99.90
6174;DHT22;3120;48.796;9.796;2023-03-01T17:43:42;5.10;99.90
6174;DHT22;3120;48.796;9.796;2023-03-01T17:46:35;5.00;99.90
6174;DHT22;3120;48.796;9.796;2023-03-01T17:49:01;4.80;1.00
6174;DHT22;3120;48.796;9.796;2023-03-01T17:51:27;4.70;1.00
6174;DHT22;3120;48.796;9.796;2023-03-01T17:53:53;4.50;1.00
6174;DHT22;3120;48.796;9.796;2023-03-01T17:56:18;4.50;1.00
6174;DHT22;3120;48.796;9.796;2023-03-01T17:58:44;4.40;93.90
6174;DHT22;3120;48.796;9.796;2023-03-01T18:01:14;4.30;99.90
6174;DHT22;3120;48.796;9.796;2023-03-01T18:03:41;4.30;99.90
6174;DHT22;3120;48.796;9.796;2023-03-01T18:06:12;4.30;99.90
6174;DHT22;3120;48.796;9.796;2023-03-01T18:08:40;4.40;99.90
6174;DHT22;3120;48.796;9.796;2023-03-01T18:11:08;4.50;15.60
6174;DHT22;3120;48.796;9.796;2023-03-01T18:13:34;4.50;3.50
6174;DHT22;3120;48.796;9.796;2023-03-01T18:16:04;4.50;2.50
6174;DHT22;3120;48.796;9.796;2023-03-01T18:18:30;4.40;22.10
6174;DHT22;3120;48.796;9.796;2023-03-01T18:20:57;4.40;95.50
6174;DHT22;3120;48.796;9.796;2023-03-01T18:23:23;4.30;99.90
6174;DHT22;3120;48.796;9.796;2023-03-01T18:25:50;4.20;99.90
6174;DHT22;3120;48.796;9.796;2023-03-01T18:28:18;4.10;99.90
6174;DHT22;3120;48.796;9.796;2023-03-01T18:30:44;3.90;1.00
6174;DHT22;3120;48.796;9.796;2023-03-01T18:33:10;3.90;1.00
6174;DHT22;3120;48.796;9.796;2023-03-01T18:35:37;3.80;1.00
6174;DHT22;3120;48.796;9.796;2023-03-01T18:38:04;3.80;15.20
6174;DHT22;3120;48.796;9.796;2023-03-01T18:43:53;3.80;1.00
6174;DHT22;3120;48.796;9.796;2023-03-01T18:46:20;3.80;37.90
6174;DHT22;3120;48.796;9.796;2023-03-01T18:48:47;3.70;99.90
6174;DHT22;3120;48.796;9.796;2023-03-01T18:51:27;3.70;99.90
6174;DHT22;3120;48.796;9.796;2023-03-01T18:53:54;3.80;1.00
6174;DHT22;3120;48.796;9.796;2023-03-01T18:56:20;3.80;1.00
6174;DHT22;3120;48.796;9.796;2023-03-01T18:58:45;3.80;1.00
6174;DHT22;3120;48.796;9.796;2023-03-01T19:01:24;3.80;99.90
6174;DHT22;3120;48.796;9.796;2023-03-01T19:03:51;3.80;1.00
6174;DHT22;3120;48.796;9.796;2023-03-01T19:06:18;3.80;1.00
6174;DHT22;3120;48.796;9.796;2023-03-01T19:08:44;3.70;1.00
6174;DHT22;3120;48.796;9.796;2023-03-01T19:11:10;3.70;1.00
6174;DHT22;3120;48.796;9.796;2023-03-01T19:13:38;3.80;1.00